首页
METAR-TAF:

METAR-TAF

机场 :

Ingenika Point, 不列颠哥伦比亚, 加拿大

纬度: 56-48N, 经度: 124-54W, 海拔: 680米

当前天气观测

该预报发布于24小时和49分钟前的11:48 UTC
风速3节,风向
温度 14°C
湿度 94%
气压 1003 hPa
能見度: 24.1公里
少量云层高于800英尺
多云层高于5000英尺
多云层高于7000英尺
小阵雨

METAR: CWWU 191148Z CCB 19003KT 15SM -SHRA FEW008 BKN050 BKN070 14/13 A2962 RMK SF1SC5AC2 TR SF SLP031

时间: 05:37 (12:37 UTC)

预报

该预报发布于37分钟前的12:00 UTC
预报有效从20日的 12点(UTC)到 21日的 12点(UTC)
风速10节,风向西转西南,有时为17节阵风
能見度: 10公里
散云层高于2000英尺
多云层高于4000英尺
从 20日的 1700点(UTC)
风速9节,风向西
能見度: 9.7公里
多云层高于1500英尺
阴天层高于2500英尺
小阵雨
从 20日的 2300点(UTC)
风速11节,风向西,有时为18节阵风
能見度: 10公里
散云层高于1500英尺
多云层高于3000英尺
阴天层高于4500英尺
从 21日的 0800点(UTC)
风速13节,风向西转西北,有时为20节阵风
能見度: 10公里
少量云层高于2000英尺
散云层高于4000英尺
多云层高于6000英尺

TAF: CWWU 201200Z 2012/2112 25010G17KT P6SM SCT020 BKN040 FM201700 27009KT 6SM -SHRA BKN015 OVC025 FM202300 28011G18KT P6SM SCT015 BKN030 OVC045 FM210800 30013G20KT P6SM FEW020 SCT040 BKN060 RMK NXT FCST BY 201800Z

超过4000个机场的气象观测和天气预报(METAR&TAF报告)。

可查询的气象台以黄色和红色小点在地图上表示。

将鼠标移到小点上方,可查看气象台名称。

然后点击查看天气观测和预报。

如需切换地图:点击带黑十字的绿色按钮放大地图;点击带横线的绿色按钮缩小地图;或者点击绿色箭头查看邻近地区的地图。


METAR-TAF: